< < Back
Terminal Aerodrome Forecast


Current Version              Previous Versions:   1  2  3  4  5  6  7  8  9  

Terminal Aerodrome Forecast

497
FTUS44 KOHX 311700
TAFCSV
TAF
KCSV 311728Z 3118/0118 09004KT P6SM BKN200
     FM011100 17004KT P6SM OVC100
     FM011600 18012G18KT P6SM OVC070=



Latest METAR

178
SAUS70 KWBC 011300 RRK
MTRCSV
METAR KCSV 011253Z AUTO 18008G14KT 10SM FEW110 06/M07 A3009 RMK AO2
SLP193 T00611072


USA.gov is the U.S. government's official web portal to all federal, state and local government web resources and services.